Time;durP1;ratioP1;P1;durP2;ratioP2;P2;SDS_P1;SDS_P2;PMS_P1;PMS_P2;Temp;Humidity;BMP_temperature;BMP_pressure;BME280_temperature;BME280_humidity;BME280_pressure;Samples;Min_cycle;Max_cycle;Signal;HPM_P1;HPM_P2
2023/11/16 00:13:09;;;;;;;10.18;5.43;;;;;;;-147.20;100.00;63046.97;31552499;28;20040;-61
2023/11/16 00:28:09;;;;;;;9.90;5.38;;;;;;;-147.20;100.00;63046.97;31550050;28;20466;-64
2023/11/16 00:43:10;;;;;;;8.35;4.65;;;;;;;-147.20;100.00;63046.97;31549579;28;20136;-62
2023/11/16 00:58:10;;;;;;;8.38;4.68;;;;;;;-147.20;100.00;63046.97;31546856;28;20136;-62
2023/11/16 01:13:11;;;;;;;11.23;5.35;;;;;;;-147.20;100.00;63046.97;31546857;28;20032;-62
2023/11/16 01:28:11;;;;;;;12.85;5.30;;;;;;;-147.20;100.00;63046.97;31545495;28;20544;-62
2023/11/16 01:43:12;;;;;;;11.50;5.47;;;;;;;-147.20;100.00;63046.97;31542175;28;20048;-62
2023/11/16 01:58:14;;;;;;;9.35;5.25;;;;;;;-147.20;100.00;63046.97;31540899;28;20056;-62
2023/11/16 02:13:23;;;;;;;8.25;4.43;;;;;;;-147.20;100.00;63046.97;31540074;28;20602;-64
2023/11/16 02:28:23;;;;;;;9.43;5.05;;;;;;;-147.20;100.00;63046.97;31539188;28;20025;-61
2023/11/16 02:43:28;;;;;;;12.02;5.25;;;;;;;-147.20;100.00;63046.97;31538685;28;20048;-65
2023/11/16 02:58:29;;;;;;;9.75;4.95;;;;;;;-147.20;100.00;63046.97;31536752;28;20076;-62
2023/11/16 03:13:29;;;;;;;10.10;4.88;;;;;;;-147.20;100.00;63046.97;31535057;28;20064;-64
2023/11/16 03:28:30;;;;;;;11.02;5.47;;;;;;;-147.20;100.00;63046.97;31534168;28;20116;-62
2023/11/16 03:43:30;;;;;;;8.65;5.07;;;;;;;-147.20;100.00;63046.97;31532412;28;20033;-63
2023/11/16 03:58:30;;;;;;;9.82;5.35;;;;;;;-147.20;100.00;63046.97;31535401;28;20052;-63
2023/11/16 04:13:31;;;;;;;9.02;4.57;;;;;;;-147.20;100.00;63046.97;31551449;28;20036;-63
2023/11/16 04:28:33;;;;;;;9.25;5.28;;;;;;;-147.20;100.00;63046.97;31550807;28;20113;-66
2023/11/16 04:43:34;;;;;;;7.38;4.63;;;;;;;-147.20;100.00;63046.97;31546567;28;20033;-63
2023/11/16 04:58:35;;;;;;;7.32;5.10;;;;;;;-147.20;100.00;63046.97;31544291;28;20041;-66
2023/11/16 05:13:35;;;;;;;7.75;4.68;;;;;;;-147.20;100.00;63046.97;31540465;28;20976;-62
2023/11/16 05:28:35;;;;;;;8.43;5.68;;;;;;;-147.20;100.00;63046.97;31540189;28;20075;-67
2023/11/16 05:43:37;;;;;;;11.18;6.95;;;;;;;-147.20;100.00;63046.97;31527492;28;20041;-66
2023/11/16 06:01:32;;;;;;;8.18;5.75;;;;;;;5.91;76.63;100081.81;31118132;28;97876;-63
2023/11/16 06:16:33;;;;;;;7.60;5.40;;;;;;;5.76;76.91;100086.72;31059250;28;101028;-62
2023/11/16 06:31:33;;;;;;;9.85;5.60;;;;;;;5.50;77.67;100075.06;31056724;28;97042;-62
2023/11/16 06:46:34;;;;;;;11.63;6.75;;;;;;;5.28;77.72;100087.59;31056041;28;107601;-65
2023/11/16 07:01:35;;;;;;;9.43;6.40;;;;;;;5.40;78.33;100081.19;31034001;28;96715;-63
2023/11/16 07:16:35;;;;;;;8.95;6.03;;;;;;;6.58;79.23;100068.50;30971404;28;96860;-63
2023/11/16 07:31:37;;;;;;;9.40;5.95;;;;;;;8.50;78.68;100077.88;30971490;28;113925;-65
2023/11/16 07:46:38;;;;;;;9.63;5.07;;;;;;;9.84;74.85;100058.28;30968273;28;96692;-63
2023/11/16 08:01:48;;;;;;;9.60;4.47;;;;;;;14.52;70.85;100045.34;30966413;28;97115;-63
2023/11/16 08:16:49;;;;;;;4.17;2.50;;;;;;;18.08;62.33;100066.78;30966730;28;96657;-62
2023/11/16 08:31:52;;;;;;;6.20;3.22;;;;;;;20.72;54.45;100050.72;30964346;28;96802;-63
2023/11/16 08:46:57;;;;;;;2.80;1.50;;;;;;;23.08;46.82;100052.59;30958355;28;96843;-64
2023/11/16 09:01:59;;;;;;;5.13;2.63;;;;;;;25.37;39.69;100047.03;30961788;28;97726;-64
2023/11/16 09:17:02;;;;;;;6.13;3.50;;;;;;;22.54;37.87;100048.75;30957893;28;97122;-64
2023/11/16 09:32:05;;;;;;;7.33;2.73;;;;;;;18.49;39.93;100035.63;30955585;28;97368;-64
2023/11/16 09:47:23;;;;;;;4.70;3.10;;;;;;;19.15;36.79;100016.91;30966763;28;97268;-64
2023/11/16 10:02:25;;;;;;;7.63;3.53;;;;;;;15.31;43.78;99994.78;30957857;28;97207;-63
2023/11/16 10:17:26;;;;;;;8.27;3.07;;;;;;;22.73;37.80;99980.53;30956433;28;97460;-63
2023/11/16 10:32:29;;;;;;;5.53;2.65;;;;;;;26.10;29.46;99974.09;30954123;28;97475;-63
2023/11/16 10:47:30;;;;;;;3.73;1.80;;;;;;;28.88;25.91;99952.28;30971448;28;97183;-63
2023/11/16 11:02:33;;;;;;;3.47;1.60;;;;;;;32.03;22.30;99916.66;30972575;28;97182;-64
2023/11/16 11:17:41;;;;;;;2.40;1.30;;;;;;;33.82;20.10;99894.47;30971319;28;97162;-64
2023/11/16 11:32:46;;;;;;;3.13;1.20;;;;;;;31.82;20.20;99880.66;30968459;28;97368;-64
2023/11/16 11:47:48;;;;;;;5.37;1.43;;;;;;;32.61;18.54;99853.13;30968232;28;97490;-63
2023/11/16 12:02:49;;;;;;;3.80;1.40;;;;;;;23.48;25.03;99831.16;30967329;28;96957;-63
2023/11/16 12:17:50;;;;;;;4.70;1.30;;;;;;;23.96;25.49;99818.31;30966006;28;97205;-63
2023/11/16 12:32:50;;;;;;;2.43;1.20;;;;;;;20.19;29.06;99803.78;30963134;28;97412;-63
2023/11/16 12:47:51;;;;;;;3.08;1.70;;;;;;;20.17;30.64;99778.88;30963199;28;97396;-63
2023/11/16 13:02:51;;;;;;;3.97;1.50;;;;;;;15.93;34.91;99781.53;30961975;28;110388;-63
2023/11/16 13:17:51;;;;;;;3.97;1.40;;;;;;;13.37;39.77;99774.56;30958684;28;101357;-63
2023/11/16 13:32:52;;;;;;;5.63;1.60;;;;;;;12.26;42.42;99788.56;30956485;28;96784;-62
2023/11/16 13:47:53;;;;;;;8.30;2.17;;;;;;;11.18;44.46;99779.31;30954275;28;97145;-62
2023/11/16 14:02:54;;;;;;;7.40;4.13;;;;;;;10.71;46.75;99753.81;30954080;28;97391;-63
2023/11/16 14:17:54;;;;;;;3.55;1.98;;;;;;;10.22;49.71;99755.03;30969488;28;96971;-63
2023/11/16 14:32:54;;;;;;;3.65;1.95;;;;;;;9.87;50.74;99740.50;30977379;28;96856;-63
2023/11/16 14:47:56;;;;;;;8.30;4.05;;;;;;;9.73;51.29;99719.00;30974811;28;100095;-65
2023/11/16 15:02:57;;;;;;;5.37;2.70;;;;;;;9.48;51.73;99700.50;30974305;28;97032;-64
2023/11/16 15:17:57;;;;;;;7.60;3.83;;;;;;;9.02;53.45;99711.03;30973693;28;97137;-65
2023/11/16 15:32:57;;;;;;;3.58;1.48;;;;;;;8.65;55.05;99704.50;30968170;28;97438;-64
2023/11/16 15:47:58;;;;;;;5.55;1.88;;;;;;;8.54;56.30;99688.94;30968308;28;108238;-63
2023/11/16 16:02:58;;;;;;;5.88;1.65;;;;;;;8.45;56.42;99669.53;30966650;28;96742;-63
2023/11/16 16:17:58;;;;;;;8.38;2.28;;;;;;;8.22;57.13;99656.13;30965321;28;115879;-63
2023/11/16 16:32:59;;;;;;;3.80;1.80;;;;;;;7.84;57.26;99619.50;30958287;28;97636;-64
2023/11/16 16:48:00;;;;;;;5.18;1.90;;;;;;;7.42;58.49;99608.06;30950936;28;97249;-64
2023/11/16 17:03:00;;;;;;;21.13;10.82;;;;;;;6.93;59.40;99634.44;30952359;28;97136;-63
2023/11/16 17:18:01;;;;;;;31.13;16.58;;;;;;;6.63;61.05;99663.09;30953538;28;97327;-64
2023/11/16 17:33:02;;;;;;;25.27;13.00;;;;;;;6.44;61.74;99657.03;30951214;28;97571;-64
2023/11/16 17:48:03;;;;;;;23.67;12.17;;;;;;;6.29;63.13;99663.06;30949164;28;98623;-64
2023/11/16 18:03:03;;;;;;;21.25;11.70;;;;;;;6.15;64.05;99656.50;30947877;28;98143;-63
2023/11/16 18:18:03;;;;;;;20.13;11.35;;;;;;;6.12;65.04;99631.19;30946550;28;105206;-63
2023/11/16 18:33:07;;;;;;;31.00;14.15;;;;;;;6.13;65.16;99610.91;30945464;28;96843;-64
2023/11/16 18:48:10;;;;;;;29.00;15.50;;;;;;;5.97;65.56;99611.56;30943367;28;97169;-64
2023/11/16 19:03:13;;;;;;;33.93;18.60;;;;;;;5.74;66.50;99612.06;30955804;28;97576;-63
2023/11/16 19:18:14;;;;;;;30.73;16.70;;;;;;;5.61;67.49;99586.03;30961553;28;96867;-63
2023/11/16 19:33:14;;;;;;;33.53;16.33;;;;;;;5.57;67.60;99580.22;30963042;28;97928;-63
2023/11/16 19:48:16;;;;;;;32.63;16.55;;;;;;;5.58;68.04;99563.38;30962177;28;97519;-66
2023/11/16 20:03:18;;;;;;;26.30;14.23;;;;;;;5.68;68.23;99557.19;30962136;28;96717;-63
2023/11/16 20:18:18;;;;;;;33.17;16.87;;;;;;;5.78;68.08;99528.00;30962148;28;97117;-63
2023/11/16 20:33:20;;;;;;;32.97;15.40;;;;;;;5.78;68.49;99517.44;30940234;28;97594;-63
2023/11/16 20:48:20;;;;;;;34.30;19.23;;;;;;;5.62;68.79;99505.78;30952000;28;96996;-63
2023/11/16 21:03:21;;;;;;;29.23;16.80;;;;;;;5.54;69.00;99476.66;30955720;28;97169;-63
2023/11/16 21:18:21;;;;;;;57.25;22.52;;;;;;;5.53;69.72;99464.44;30952121;28;106707;-64
2023/11/16 21:33:21;;;;;;;46.00;20.17;;;;;;;5.50;69.77;99462.13;30944958;28;97010;-64
2023/11/16 21:48:22;;;;;;;34.08;19.50;;;;;;;5.35;70.26;99478.50;30957582;28;97863;-64
2023/11/16 22:03:22;;;;;;;38.28;21.00;;;;;;;5.15;70.32;99491.06;30959948;28;101621;-64
2023/11/16 22:18:22;;;;;;;36.88;19.05;;;;;;;5.33;70.52;99477.84;30958300;28;104367;-64
2023/11/16 22:33:22;;;;;;;40.75;20.17;;;;;;;5.31;70.24;99478.97;30962453;28;106920;-64
2023/11/16 22:48:23;;;;;;;36.92;19.52;;;;;;;5.30;71.03;99467.56;30979242;28;97739;-64
2023/11/16 23:03:23;;;;;;;38.22;20.30;;;;;;;5.35;70.75;99449.47;30978710;28;98257;-64
2023/11/16 23:18:24;;;;;;;93.47;32.72;;;;;;;5.35;71.40;99433.59;30977025;28;96622;-64
2023/11/16 23:33:24;;;;;;;60.13;25.17;;;;;;;5.32;71.37;99425.19;30965271;28;104170;-63
2023/11/16 23:48:25;;;;;;;43.78;22.38;;;;;;;5.39;71.57;99413.81;30970685;28;97175;-64
